createdAt,value
2022-11-29T00:01:35.417Z,5.40
2022-11-29T00:04:05.841Z,5.40
2022-11-29T00:06:35.959Z,5.30
2022-11-29T00:09:08.025Z,5.40
2022-11-29T00:11:55.943Z,5.40
2022-11-29T00:14:25.156Z,5.30
2022-11-29T00:16:55.468Z,5.30
2022-11-29T00:19:24.985Z,5.40
2022-11-29T00:21:53.254Z,5.30
2022-11-29T00:24:21.583Z,5.30
2022-11-29T00:26:49.577Z,5.30
2022-11-29T00:29:18.125Z,5.30
2022-11-29T00:31:46.311Z,5.30
2022-11-29T00:34:14.385Z,5.30
2022-11-29T00:36:43.744Z,5.30
2022-11-29T00:39:12.860Z,5.30
2022-11-29T00:41:41.035Z,5.30
2022-11-29T00:44:12.822Z,5.30
2022-11-29T00:46:43.400Z,5.20
2022-11-29T00:49:11.472Z,5.30
2022-11-29T00:51:39.654Z,5.30
2022-11-29T00:54:09.012Z,5.30
2022-11-29T00:56:37.028Z,5.30
2022-11-29T00:59:05.134Z,5.30
2022-11-29T01:01:33.195Z,5.30
2022-11-29T01:04:01.876Z,5.20
2022-11-29T01:06:29.953Z,5.20
2022-11-29T01:08:57.956Z,5.20
2022-11-29T01:11:28.840Z,5.10
2022-11-29T01:13:58.505Z,5.20
2022-11-29T01:16:27.027Z,5.30
2022-11-29T01:18:55.110Z,5.30
2022-11-29T01:21:24.642Z,5.30
2022-11-29T01:23:54.482Z,5.20
2022-11-29T01:26:24.624Z,5.20
2022-11-29T01:28:55.929Z,5.20
2022-11-29T01:31:25.575Z,5.20
2022-11-29T01:33:55.781Z,5.20
2022-11-29T01:36:24.331Z,5.10
2022-11-29T01:38:53.017Z,5.20
2022-11-29T01:41:22.799Z,5.10
2022-11-29T01:44:02.073Z,5.10
2022-11-29T01:46:31.689Z,5.10
2022-11-29T01:49:05.339Z,5.20
2022-11-29T01:51:35.646Z,5.10
2022-11-29T01:54:03.873Z,5.20
2022-11-29T01:56:34.137Z,5.20
2022-11-29T01:59:06.955Z,5.10
2022-11-29T02:01:36.040Z,5.20
2022-11-29T02:04:04.153Z,5.10
2022-11-29T02:06:32.229Z,5.20
2022-11-29T02:09:00.321Z,5.20
2022-11-29T02:11:52.076Z,5.20
2022-11-29T02:14:37.512Z,5.20
2022-11-29T02:17:14.345Z,5.10
2022-11-29T02:20:06.745Z,5.10
2022-11-29T02:22:42.231Z,5.30
2022-11-29T02:25:24.347Z,5.20
2022-11-29T02:28:15.928Z,5.20
2022-11-29T02:31:05.373Z,5.20
2022-11-29T02:33:58.164Z,5.10
2022-11-29T02:36:56.782Z,5.20
2022-11-29T02:39:40.916Z,5.20
2022-11-29T02:42:56.214Z,5.20
2022-11-29T02:45:39.466Z,5.20
2022-11-29T02:48:23.121Z,5.20
2022-11-29T02:50:59.415Z,5.10
2022-11-29T02:53:33.312Z,5.10
2022-11-29T02:56:11.247Z,5.10
2022-11-29T02:58:46.528Z,5.00
2022-11-29T03:01:19.377Z,5.10
2022-11-29T03:03:55.869Z,5.10
2022-11-29T03:06:33.147Z,5.10
2022-11-29T03:09:08.716Z,5.00
2022-11-29T03:11:46.501Z,5.00
2022-11-29T03:14:25.076Z,5.00
2022-11-29T03:17:01.162Z,5.00
2022-11-29T03:19:41.396Z,5.00
2022-11-29T03:22:20.162Z,5.00
2022-11-29T03:24:55.693Z,5.00
2022-11-29T03:27:31.868Z,4.90
2022-11-29T03:30:03.363Z,4.90
2022-11-29T03:32:39.145Z,4.90
2022-11-29T03:35:13.748Z,4.90
2022-11-29T03:37:51.384Z,4.90
2022-11-29T03:40:22.294Z,4.90
2022-11-29T03:42:57.572Z,4.80
2022-11-29T03:45:30.920Z,5.00
2022-11-29T03:48:04.930Z,4.90
2022-11-29T03:50:36.188Z,4.90
2022-11-29T03:53:15.643Z,4.80
2022-11-29T03:55:51.625Z,4.90
2022-11-29T03:58:36.748Z,4.90
2022-11-29T04:01:34.796Z,4.90
2022-11-29T04:04:25.866Z,4.90
2022-11-29T04:07:08.024Z,4.90
2022-11-29T04:09:53.695Z,4.90
2022-11-29T04:13:06.625Z,4.90
2022-11-29T04:16:21.720Z,4.90
2022-11-29T04:19:20.628Z,4.80
2022-11-29T04:22:15.439Z,4.90
2022-11-29T04:25:04.786Z,4.90
2022-11-29T04:27:54.324Z,4.90
2022-11-29T04:30:23.537Z,4.90
2022-11-29T04:33:26.596Z,4.80
2022-11-29T04:36:22.154Z,4.80
2022-11-29T04:39:16.937Z,4.80
2022-11-29T04:42:26.874Z,4.80
2022-11-29T04:45:31.086Z,4.80
2022-11-29T04:48:17.585Z,4.90
2022-11-29T04:50:57.175Z,4.90
2022-11-29T04:53:48.794Z,4.90
2022-11-29T04:56:24.761Z,4.90
2022-11-29T04:59:00.228Z,4.90
2022-11-29T05:01:36.996Z,4.90
2022-11-29T05:04:14.580Z,5.00
2022-11-29T05:06:51.048Z,5.00
2022-11-29T05:09:27.280Z,4.90
2022-11-29T05:12:04.128Z,4.90
2022-11-29T05:14:51.637Z,4.80
2022-11-29T05:17:32.477Z,4.80
2022-11-29T05:20:11.861Z,4.90
2022-11-29T05:22:49.191Z,4.90
2022-11-29T05:25:35.383Z,4.90
2022-11-29T05:28:12.344Z,4.80
2022-11-29T05:31:04.922Z,4.80
2022-11-29T05:33:52.412Z,4.80
2022-11-29T05:36:25.552Z,5.00
2022-11-29T05:39:08.690Z,5.00
2022-11-29T05:42:02.390Z,5.10
2022-11-29T05:44:36.653Z,5.00
2022-11-29T05:47:10.000Z,5.00
2022-11-29T05:49:44.448Z,5.10
2022-11-29T05:52:25.491Z,5.00
2022-11-29T05:55:10.257Z,5.00
2022-11-29T05:57:44.456Z,4.90
2022-11-29T06:00:16.831Z,4.90
2022-11-29T06:02:59.972Z,5.00
2022-11-29T06:05:36.523Z,5.00
2022-11-29T06:08:09.768Z,4.90
2022-11-29T06:10:41.018Z,4.90
2022-11-29T06:13:18.188Z,4.90
2022-11-29T06:16:07.307Z,5.00
2022-11-29T06:19:16.217Z,4.90
2022-11-29T06:21:52.765Z,4.90
2022-11-29T06:24:39.083Z,4.90
2022-11-29T06:27:30.170Z,4.90
2022-11-29T06:30:06.840Z,4.90
2022-11-29T06:32:44.668Z,4.90
2022-11-29T06:35:34.813Z,4.80
2022-11-29T06:38:07.671Z,5.00
2022-11-29T06:40:36.396Z,4.90
2022-11-29T06:43:04.960Z,4.90
2022-11-29T06:45:33.725Z,4.90
2022-11-29T06:48:04.765Z,4.90
2022-11-29T06:50:41.778Z,4.90
2022-11-29T06:53:17.866Z,5.00
2022-11-29T06:55:58.133Z,4.90
2022-11-29T06:58:38.673Z,4.90
2022-11-29T07:01:17.308Z,5.00
2022-11-29T07:04:03.592Z,4.90
2022-11-29T07:06:34.965Z,4.80
2022-11-29T07:09:11.355Z,4.80
2022-11-29T07:11:40.307Z,5.00
2022-11-29T07:14:09.785Z,5.10
2022-11-29T07:16:46.105Z,5.00
2022-11-29T07:19:19.959Z,5.00
2022-11-29T07:21:59.955Z,4.90
2022-11-29T07:24:40.138Z,4.90
2022-11-29T07:27:15.949Z,4.80
2022-11-29T07:29:52.954Z,4.80
2022-11-29T07:32:29.121Z,4.80
2022-11-29T07:35:09.577Z,4.80
2022-11-29T07:37:50.732Z,5.20
2022-11-29T07:40:25.179Z,5.20
2022-11-29T07:43:14.597Z,5.00
2022-11-29T07:45:42.961Z,5.00
2022-11-29T07:48:12.805Z,5.00
2022-11-29T07:50:41.589Z,5.00
2022-11-29T07:53:17.834Z,4.90
2022-11-29T07:55:46.257Z,5.00
2022-11-29T07:58:15.956Z,5.00
2022-11-29T08:00:45.019Z,5.00
2022-11-29T08:03:13.706Z,4.90
2022-11-29T08:05:46.808Z,4.90
2022-11-29T08:08:16.333Z,4.90
2022-11-29T08:10:44.369Z,5.00
2022-11-29T08:13:12.372Z,5.00
2022-11-29T08:15:45.538Z,5.00
2022-11-29T08:18:13.789Z,5.10
2022-11-29T08:20:42.189Z,5.10
2022-11-29T08:23:12.563Z,5.10
2022-11-29T08:25:42.189Z,5.10
2022-11-29T08:28:10.543Z,5.10
2022-11-29T08:30:38.612Z,5.10
2022-11-29T08:33:07.121Z,5.10
2022-11-29T08:35:36.824Z,5.00
2022-11-29T08:38:04.946Z,5.00
2022-11-29T08:40:32.989Z,5.00
2022-11-29T08:43:02.413Z,4.90
2022-11-29T08:45:30.460Z,4.90
2022-11-29T08:47:58.547Z,4.90
2022-11-29T08:50:26.607Z,4.90
2022-11-29T08:53:12.226Z,4.90
2022-11-29T08:55:42.897Z,5.00
2022-11-29T08:58:14.297Z,4.90
2022-11-29T09:00:45.550Z,4.90
2022-11-29T09:03:31.213Z,5.00
2022-11-29T09:06:10.480Z,5.00
2022-11-29T09:08:40.248Z,5.00
2022-11-29T09:11:13.176Z,5.00
2022-11-29T09:13:43.646Z,4.90
2022-11-29T09:16:13.881Z,4.90
2022-11-29T09:18:47.214Z,5.00
2022-11-29T09:21:18.748Z,5.00
2022-11-29T09:23:47.437Z,5.00
2022-11-29T09:26:19.073Z,5.00
2022-11-29T09:28:49.269Z,5.00
2022-11-29T09:31:17.692Z,5.10
2022-11-29T09:33:46.509Z,5.00
2022-11-29T09:36:14.768Z,5.10
2022-11-29T09:38:42.853Z,5.00
2022-11-29T09:41:31.439Z,5.00
2022-11-29T09:44:06.856Z,5.00
2022-11-29T09:46:41.751Z,5.10
2022-11-29T09:49:24.556Z,5.00
2022-11-29T09:52:03.993Z,5.10
2022-11-29T09:54:41.138Z,5.20
2022-11-29T09:57:10.991Z,5.30
2022-11-29T09:59:44.001Z,5.20
2022-11-29T10:02:21.575Z,5.20
2022-11-29T10:04:54.975Z,5.10
2022-11-29T10:07:27.828Z,5.10
2022-11-29T10:09:59.393Z,5.10
2022-11-29T10:12:34.932Z,5.20
2022-11-29T10:15:13.772Z,5.20
2022-11-29T10:17:46.044Z,5.20
2022-11-29T10:20:17.969Z,5.20
2022-11-29T10:22:53.319Z,5.20
2022-11-29T10:25:26.003Z,5.20
2022-11-29T10:27:54.407Z,5.10
2022-11-29T10:30:23.968Z,5.20
2022-11-29T10:33:01.140Z,5.30
2022-11-29T10:35:29.698Z,5.30
2022-11-29T10:38:29.812Z,5.30
2022-11-29T10:40:55.095Z,5.20
2022-11-29T10:43:24.714Z,5.20
2022-11-29T10:45:56.450Z,5.20
2022-11-29T10:48:28.324Z,5.20
2022-11-29T10:50:56.342Z,5.20
2022-11-29T10:53:27.192Z,5.30
2022-11-29T10:56:02.061Z,5.20
2022-11-29T10:58:31.234Z,5.30
2022-11-29T11:01:02.413Z,5.40
2022-11-29T11:03:37.033Z,5.40
2022-11-29T11:06:12.568Z,5.40
2022-11-29T11:08:43.484Z,5.30
2022-11-29T11:11:12.640Z,5.40
2022-11-29T11:13:41.402Z,5.40
2022-11-29T11:16:17.662Z,5.30
2022-11-29T11:18:47.154Z,5.30
2022-11-29T11:21:16.945Z,5.30
2022-11-29T11:23:54.083Z,5.30
2022-11-29T11:26:23.090Z,5.40
2022-11-29T11:28:55.309Z,5.40
2022-11-29T11:31:34.240Z,5.40
2022-11-29T11:34:26.490Z,5.40
2022-11-29T11:36:55.754Z,5.50
2022-11-29T11:39:24.746Z,5.40
2022-11-29T11:42:10.969Z,5.40
2022-11-29T11:44:49.237Z,5.40
2022-11-29T11:47:22.010Z,5.50
2022-11-29T11:49:56.749Z,5.50
2022-11-29T11:52:28.497Z,5.50
2022-11-29T11:55:00.740Z,5.50
2022-11-29T11:57:29.704Z,5.50
2022-11-29T12:00:05.018Z,5.40
2022-11-29T12:02:42.020Z,5.40
2022-11-29T12:05:14.322Z,5.40
2022-11-29T12:10:39.714Z,5.40
2022-11-29T12:13:16.007Z,5.40
2022-11-29T12:15:48.365Z,5.40
2022-11-29T12:18:25.753Z,5.40
2022-11-29T12:20:58.033Z,5.50
2022-11-29T12:23:36.928Z,5.50
2022-11-29T12:26:13.642Z,5.40
2022-11-29T12:28:48.224Z,5.50
2022-11-29T12:31:31.944Z,5.40
2022-11-29T12:34:22.451Z,5.40
2022-11-29T12:36:56.797Z,5.40
2022-11-29T12:39:50.721Z,5.40
2022-11-29T12:42:27.545Z,5.40
2022-11-29T12:45:02.556Z,5.50
2022-11-29T12:47:44.411Z,5.50
2022-11-29T12:50:27.445Z,5.40
2022-11-29T12:53:08.238Z,5.40
2022-11-29T12:55:49.529Z,5.40
2022-11-29T12:58:27.243Z,5.30
2022-11-29T13:01:04.476Z,5.40
2022-11-29T13:03:45.728Z,5.40
2022-11-29T13:06:24.141Z,5.40
2022-11-29T13:09:15.298Z,5.40
2022-11-29T13:11:49.716Z,5.50
2022-11-29T13:17:27.969Z,5.50
2022-11-29T13:19:59.444Z,5.40
2022-11-29T13:22:35.885Z,5.40
2022-11-29T13:25:13.385Z,5.30
2022-11-29T13:27:45.460Z,5.30
2022-11-29T13:30:16.831Z,5.30
2022-11-29T13:32:52.992Z,5.30
2022-11-29T13:35:25.789Z,5.30
2022-11-29T13:37:58.926Z,5.30
2022-11-29T13:40:36.331Z,5.30
2022-11-29T13:43:13.973Z,5.40
2022-11-29T13:45:46.938Z,5.40
2022-11-29T13:48:37.833Z,5.30
2022-11-29T13:51:34.196Z,5.30
2022-11-29T13:54:06.046Z,5.30
2022-11-29T13:56:43.053Z,5.30
2022-11-29T13:59:19.327Z,5.30
2022-11-29T14:01:50.334Z,5.20
2022-11-29T14:04:35.260Z,5.20
2022-11-29T14:07:06.052Z,5.30
2022-11-29T14:09:56.694Z,5.20
2022-11-29T14:12:50.346Z,5.20
2022-11-29T14:15:23.972Z,5.20
2022-11-29T14:17:56.741Z,5.20
2022-11-29T14:20:58.512Z,5.20
2022-11-29T14:23:35.039Z,5.20
2022-11-29T14:26:28.570Z,5.20
2022-11-29T14:28:57.804Z,5.10
2022-11-29T14:31:55.926Z,5.20
2022-11-29T14:34:42.999Z,5.20
2022-11-29T14:37:37.706Z,5.20
2022-11-29T14:40:20.776Z,5.20
2022-11-29T14:42:52.707Z,5.20
2022-11-29T14:45:27.322Z,5.10
2022-11-29T14:47:56.211Z,5.20
2022-11-29T14:50:32.887Z,5.20
2022-11-29T14:53:01.345Z,5.30
2022-11-29T14:55:33.330Z,5.30
2022-11-29T14:58:19.108Z,5.20
2022-11-29T15:01:08.389Z,5.20
2022-11-29T15:03:47.653Z,5.30
2022-11-29T15:06:23.189Z,5.20
2022-11-29T15:08:58.591Z,5.20
2022-11-29T15:11:47.801Z,5.20
2022-11-29T15:14:24.114Z,5.10
2022-11-29T15:17:02.206Z,5.20
2022-11-29T15:19:53.799Z,5.10
2022-11-29T15:22:26.422Z,5.20
2022-11-29T15:24:56.545Z,5.20
2022-11-29T15:27:25.445Z,5.20
2022-11-29T15:29:54.857Z,5.20
2022-11-29T15:32:26.722Z,5.20
2022-11-29T15:34:56.219Z,5.20
2022-11-29T15:37:39.173Z,5.20
2022-11-29T15:40:13.779Z,5.30
2022-11-29T15:42:44.330Z,5.20
2022-11-29T15:45:29.273Z,5.30
2022-11-29T15:48:12.474Z,5.30
2022-11-29T15:50:44.670Z,5.20
2022-11-29T15:53:19.059Z,5.30
2022-11-29T15:55:49.458Z,5.30
2022-11-29T15:58:18.308Z,5.30
2022-11-29T16:00:50.452Z,5.30
2022-11-29T16:03:25.172Z,5.30
2022-11-29T16:06:03.527Z,5.40
2022-11-29T16:08:35.637Z,5.30
2022-11-29T16:11:03.737Z,5.30
2022-11-29T16:13:38.242Z,5.20
2022-11-29T16:16:12.537Z,5.20
2022-11-29T16:18:42.828Z,5.40
2022-11-29T16:21:25.379Z,5.40
2022-11-29T16:23:54.171Z,5.40
2022-11-29T16:26:25.197Z,5.40
2022-11-29T16:28:56.245Z,5.30
2022-11-29T16:31:32.807Z,5.30
2022-11-29T16:34:08.977Z,5.20
2022-11-29T16:36:37.281Z,5.30
2022-11-29T16:39:07.973Z,5.30
2022-11-29T16:41:38.151Z,5.30
2022-11-29T16:44:22.741Z,5.30
2022-11-29T16:47:12.414Z,5.20
2022-11-29T16:49:40.500Z,5.30
2022-11-29T16:52:25.454Z,5.20
2022-11-29T16:54:53.476Z,5.30
2022-11-29T16:57:22.516Z,5.30
2022-11-29T16:59:51.187Z,5.30
2022-11-29T17:02:20.728Z,5.30
2022-11-29T17:05:17.487Z,5.30
2022-11-29T17:07:45.888Z,5.30
2022-11-29T17:10:18.804Z,5.20
2022-11-29T17:12:48.403Z,5.30
2022-11-29T17:15:16.770Z,5.30
2022-11-29T17:17:46.339Z,5.30
2022-11-29T17:20:14.853Z,5.40
2022-11-29T17:22:43.101Z,5.30
2022-11-29T17:25:11.929Z,5.40
2022-11-29T17:27:39.945Z,5.30
2022-11-29T17:30:11.214Z,5.30
2022-11-29T17:32:39.308Z,5.30
2022-11-29T17:35:09.164Z,5.30
2022-11-29T17:37:37.132Z,5.30
2022-11-29T17:40:05.660Z,5.40
2022-11-29T17:42:33.663Z,5.40
2022-11-29T17:45:01.638Z,5.30
2022-11-29T17:47:29.629Z,5.30
2022-11-29T17:49:58.059Z,5.30
2022-11-29T17:52:27.421Z,5.40
2022-11-29T17:54:55.448Z,5.30
2022-11-29T17:57:23.410Z,5.40
2022-11-29T17:59:51.402Z,5.40
2022-11-29T18:02:19.445Z,5.50
2022-11-29T18:04:47.505Z,5.40
2022-11-29T18:07:17.134Z,5.30
2022-11-29T18:09:48.430Z,5.30
2022-11-29T18:12:16.650Z,5.30
2022-11-29T18:14:44.653Z,5.30
2022-11-29T18:17:12.723Z,5.30
2022-11-29T18:19:40.830Z,5.40
2022-11-29T18:22:08.957Z,5.30
2022-11-29T18:24:36.964Z,5.30
2022-11-29T18:27:06.440Z,5.30
2022-11-29T18:29:39.087Z,5.40
2022-11-29T18:32:13.791Z,5.40
2022-11-29T18:34:41.824Z,5.30
2022-11-29T18:37:15.334Z,5.30
2022-11-29T18:39:46.241Z,5.30
2022-11-29T18:42:15.668Z,5.30
2022-11-29T18:44:43.715Z,5.30
2022-11-29T18:47:11.789Z,5.30
2022-11-29T18:49:39.799Z,5.20
2022-11-29T18:52:07.776Z,5.30
2022-11-29T18:54:35.773Z,5.30
2022-11-29T18:57:03.857Z,5.30
2022-11-29T18:59:33.670Z,5.30
2022-11-29T19:02:01.692Z,5.30
2022-11-29T19:04:30.052Z,5.30
2022-11-29T19:06:58.033Z,5.20
2022-11-29T19:09:26.122Z,5.30
2022-11-29T19:11:54.116Z,5.30
2022-11-29T19:14:22.354Z,5.20
2022-11-29T19:16:51.746Z,5.20
2022-11-29T19:19:20.061Z,5.20
2022-11-29T19:21:48.337Z,5.30
2022-11-29T19:24:18.197Z,5.20
2022-11-29T19:26:48.643Z,5.20
2022-11-29T19:29:17.162Z,5.20
2022-11-29T19:31:45.376Z,5.30
2022-11-29T19:34:14.808Z,5.20
2022-11-29T19:36:44.563Z,5.20
2022-11-29T19:39:14.314Z,5.20
2022-11-29T19:41:43.787Z,5.10
2022-11-29T19:44:12.037Z,5.20
2022-11-29T19:46:42.347Z,5.20
2022-11-29T19:49:11.972Z,5.10
2022-11-29T19:51:41.703Z,5.10
2022-11-29T19:54:11.825Z,5.10
2022-11-29T19:56:40.389Z,5.10
2022-11-29T19:59:08.763Z,5.10
2022-11-29T20:01:41.246Z,5.10
2022-11-29T20:04:10.386Z,5.10
2022-11-29T20:06:42.766Z,5.10
2022-11-29T20:09:11.069Z,5.20
2022-11-29T20:11:39.343Z,5.20
2022-11-29T20:14:07.941Z,5.20
2022-11-29T20:16:37.756Z,5.20
2022-11-29T20:19:10.750Z,5.20
2022-11-29T20:21:44.940Z,5.10
2022-11-29T20:24:14.315Z,5.10
2022-11-29T20:26:44.497Z,5.10
2022-11-29T20:29:13.521Z,5.20
2022-11-29T20:31:49.163Z,5.20
2022-11-29T20:34:19.345Z,5.20
2022-11-29T20:37:07.465Z,5.10
2022-11-29T20:39:42.561Z,5.10
2022-11-29T20:42:32.917Z,5.10
2022-11-29T20:45:02.663Z,5.20
2022-11-29T20:47:41.254Z,5.30
2022-11-29T20:50:14.479Z,5.30
2022-11-29T20:52:50.165Z,5.20
2022-11-29T20:55:18.621Z,5.20
2022-11-29T20:57:46.733Z,5.10
2022-11-29T21:00:16.165Z,5.10
2022-11-29T21:02:44.144Z,5.10
2022-11-29T21:05:12.189Z,5.20
2022-11-29T21:07:40.244Z,5.20
2022-11-29T21:10:11.051Z,5.20
2022-11-29T21:12:39.675Z,5.20
2022-11-29T21:15:09.716Z,5.30
2022-11-29T21:17:38.248Z,5.20
2022-11-29T21:20:07.990Z,5.30
2022-11-29T21:22:46.857Z,5.30
2022-11-29T21:25:23.264Z,5.30
2022-11-29T21:27:53.290Z,5.20
2022-11-29T21:30:23.585Z,5.30
2022-11-29T21:32:52.344Z,5.30
2022-11-29T21:35:20.388Z,5.30
2022-11-29T21:37:48.463Z,5.20
2022-11-29T21:40:18.025Z,5.30
2022-11-29T21:42:46.001Z,5.20
2022-11-29T21:45:15.786Z,5.20
2022-11-29T21:47:44.901Z,5.20
2022-11-29T21:50:13.459Z,5.30
2022-11-29T21:52:41.737Z,5.30
2022-11-29T21:55:10.367Z,5.30
2022-11-29T21:57:39.784Z,5.40
2022-11-29T22:00:09.132Z,5.30
2022-11-29T22:02:37.620Z,5.50
2022-11-29T22:05:07.915Z,5.40
2022-11-29T22:07:35.951Z,5.30
2022-11-29T22:10:11.702Z,5.20
2022-11-29T22:12:51.388Z,5.20
2022-11-29T22:15:24.795Z,5.30
2022-11-29T22:17:53.838Z,5.20
2022-11-29T22:20:21.923Z,5.20
2022-11-29T22:22:52.518Z,5.20
2022-11-29T22:25:22.558Z,5.20
2022-11-29T22:27:52.064Z,5.20
2022-11-29T22:30:21.081Z,5.20
2022-11-29T22:32:49.093Z,5.20
2022-11-29T22:35:17.197Z,5.20
2022-11-29T22:37:45.640Z,5.20
2022-11-29T22:40:14.127Z,5.20
2022-11-29T22:42:43.191Z,5.20
2022-11-29T22:45:12.851Z,5.40
2022-11-29T22:47:40.836Z,5.20
2022-11-29T22:50:09.935Z,5.20
2022-11-29T22:52:38.010Z,5.30
2022-11-29T22:55:06.681Z,5.30
2022-11-29T22:57:34.657Z,5.20
2022-11-29T23:00:02.748Z,5.20
2022-11-29T23:02:32.225Z,5.20
2022-11-29T23:05:00.252Z,5.20
2022-11-29T23:07:28.310Z,5.20
2022-11-29T23:09:56.540Z,5.20
2022-11-29T23:12:24.629Z,5.20
2022-11-29T23:14:56.370Z,5.30
2022-11-29T23:17:24.876Z,5.20
2022-11-29T23:19:54.254Z,5.30
2022-11-29T23:22:22.264Z,5.20
2022-11-29T23:24:50.235Z,5.30
2022-11-29T23:27:18.215Z,5.30
2022-11-29T23:29:46.196Z,5.20
2022-11-29T23:32:14.173Z,5.20
2022-11-29T23:34:42.469Z,5.20
2022-11-29T23:37:11.803Z,5.10
2022-11-29T23:39:39.828Z,5.20
2022-11-29T23:42:07.819Z,5.20
2022-11-29T23:44:35.820Z,5.20
2022-11-29T23:47:03.902Z,5.20
2022-11-29T23:49:32.196Z,5.20
2022-11-29T23:52:00.185Z,5.20
2022-11-29T23:54:29.637Z,5.20
2022-11-29T23:56:57.652Z,5.20
2022-11-29T23:59:25.633Z,5.20
